Avocado (520, 521) Station Data

Red Flag Warning: No
Fire Weather Zone: 250
SDGE Region: North East
Lat/Lon: 33.392/-117.255

Observations

Time Wind Speed/Gust Temp(F) RH Fuel Moist Fuel Temp(F) Dewpt(F) Tmax(F) Tmin(F) Accum Precip 10-min Precip SL Press(mb)
6/27 5:00pm 179 4 G 9 83° 30% - - 48° 94.4° 56.2° - - -
6/27 4:50pm 188 5 G 11 83° 29% - - 48° 94.4° 56.2° - - -
6/27 4:40pm 197 5 G 10 84° 28% - - 47° 94.4° 56.2° - - -
6/27 4:30pm 180 6 G 12 83° 28% - - 47° 94.4° 56.2° - - -
6/27 4:20pm 182 7 G 12 85° 28% - - 48° 94.4° 56.2° - - -
6/27 4:10pm 183 6 G 12 86° 27% - - 47° 94.4° 56.2° - - -
6/27 4:00pm 188 7 G 18 86° 25% - - 46° 94.4° 56.2° - - -
6/27 3:50pm 185 7 G 13 86° 24% - - 46° 94.4° 56.2° - - -
6/27 3:40pm 191 8 G 16 86° 23% - - 45° 94.4° 56.2° - - -
6/27 3:30pm 191 8 G 14 87° 24% - - 46° 94.4° 56.2° - - -
6/27 3:20pm 206 9 G 14 88° 21% - - 43° 94.4° 56.2° - - -
6/27 3:10pm 198 8 G 16 88° 21% - - 44° 94.4° 56.2° - - -
6/27 3:00pm 202 9 G 14 89° 18% - - 40° 94.4° 56.2° - - -
6/27 2:50pm 197 9 G 16 89° 17% - - 38° 94.4° 56.2° - - -
6/27 2:40pm 196 8 G 14 89° 16% - - 38° 94.4° 56.2° - - -
6/27 2:30pm 202 9 G 14 89° 17% - - 38° 94.4° 56.2° - - -
6/27 2:20pm 199 9 G 15 90° 18% - - 40° 94.4° 56.2° - - -
6/27 2:10pm 201 8 G 14 90° 17% - - 39° 94.4° 56.2° - - -
6/27 2:00pm 199 9 G 16 90° 14% - - 34° 94.4° 56.2° - - -
6/27 1:50pm 195 7 G 14 91° 13% - - 34° 94.4° 56.2° - - -
6/27 1:40pm 196 8 G 15 91° 16% - - 38° 94.4° 56.2° - - -
6/27 1:30pm 203 8 G 15 90° 19% - - 43° 94.4° 56.2° - - -
6/27 1:20pm 188 7 G 14 90° 18% - - 42° 94.4° 56.2° - - -
6/27 1:10pm 201 9 G 15 90° 16% - - 38° 94.4° 56.2° - - -
6/27 1:00pm 195 8 G 15 90° 15% - - 37° 94.4° 56.2° - - -
6/27 12:50pm 193 8 G 15 92° 15% - - 38° 94.4° 56.2° - - -
6/27 12:40pm 193 6 G 13 93° 14% - - 36° 94.4° 56.2° - - -
6/27 12:30pm 190 8 G 14 92° 14% - - 36° 94.4° 56.2° - - -
6/27 12:20pm 188 6 G 13 92° 18% - - 42° 94.4° 56.2° - - -
6/27 12:10pm 189 7 G 12 93° 18% - - 42° 94.4° 56.2° - - -
6/27 12:00pm 192 6 G 11 93° 15% - - 38° 94.4° 56.2° - - -
6/27 11:50am 203 6 G 13 93° 14% - - 36° 93.9° 56.2° - - -
6/27 11:40am 183 5 G 10 93° 13% - - 34° 93.8° 56.2° - - -
6/27 11:30am 197 5 G 9 92° 12% - - 33° 92.7° 56.2° - - -
6/27 11:20am 202 4 G 8 91° 14% - - 36° 92.3° 56.2° - - -
6/27 11:10am 200 4 G 8 91° 14% - - 36° 92.3° 56.2° - - -
6/27 11:00am 170 4 G 10 90° 15% - - 36° 90.8° 56.2° - - -
6/27 10:50am 203 4 G 8 89° 15% - - 35° 90.4° 56.2° - - -
6/27 10:40am 195 4 G 10 89° 15% - - 35° 89.7° 56.2° - - -
6/27 10:30am 205 4 G 8 88° 16% - - 36° 89.4° 56.2° - - -
6/27 10:20am 186 4 G 8 88° 17% - - 38° 89.3° 56.2° - - -
6/27 10:10am 188 4 G 8 87° 19% - - 39° 87.6° 56.2° - - -
6/27 10:00am 182 4 G 7 87° 20% - - 40° 87.3° 56.2° - - -
6/27 9:50am 170 4 G 7 86° 21% - - 42° 87.3° 56.2° - - -
6/27 9:40am 189 3 G 6 86° 22% - - 43° 87.3° 56.2° - - -
6/27 9:30am 176 2 G 6 87° 21% - - 42° 87.3° 56.2° - - -
6/27 9:20am 124 3 G 7 85° 19% - - 38° 86° 56.2° - - -
6/27 9:10am 117 3 G 6 84° 19% - - 37° 84.3° 56.2° - - -
6/27 9:00am 165 2 G 6 83° 20% - - 38° 83.4° 56.2° - - -
6/27 8:50am 82 2 G 4 82° 22% - - 40° 82.8° 56.2° - - -
6/27 8:40am 48 2 G 4 81° 24% - - 41° 82.1° 56.2° - - -
6/27 8:30am 53 1 G 3 79° 27% - - 43° 80.3° 56.2° - - -
6/27 8:20am 48 2 G 3 78° 32% - - 46° 78.2° 56.2° - - -
6/27 8:10am 33 2 G 3 76° 35% - - 46° 76.8° 56.2° - - -
6/27 8:00am 36 2 G 4 74° 37% - - 46° 74.8° 56.2° - - -
6/27 7:50am 49 1 G 3 72° 39% - - 45° 73.1° 56.2° - - -
6/27 7:40am 41 1 G 2 69° 42% - - 45° 70.4° 56.2° - - -
6/27 7:30am 33 2 G 3 67° 48% - - 46° 67.8° 56.2° - - -
6/27 7:20am 37 2 G 3 66° 50% - - 47° 66.4° 56.2° - - -
6/27 7:10am 41 1 G 2 63° 55% - - 47° 64.9° 56.2° - - -
6/27 7:00am 39 1 G 2 61° 60% - - 47° 64.9° 56.2° - - -
6/27 6:50am 22 2 G 3 60° 65% - - 48° 64.9° 56.2° - - -
6/27 6:40am 5 2 G 3 59° 67% - - 48° 64.9° 56.2° - - -
6/27 6:30am 9 1 G 3 58° 72% - - 49° 64.9° 56.2° - - -
6/27 6:20am 12 2 G 3 57° 72% - - 48° 64.9° 56.2° - - -
6/27 6:10am 10 2 G 4 57° 71% - - 48° 64.9° 56.2° - - -
6/27 6:00am 12 1 G 3 57° 74% - - 48° 64.9° 56.2° - - -
6/27 5:50am 20 1 G 2 56° 76% - - 49° 64.9° 56.2° - - -
6/27 5:40am 9 2 G 4 57° 75% - - 49° 64.9° 56.3° - - -
6/27 5:30am 19 1 G 3 57° 77% - - 50° 64.9° 56.3° - - -
6/27 5:20am 13 2 G 5 57° 78% - - 50° 64.9° 56.3° - - -
6/27 5:10am 17 2 G 3 57° 76% - - 50° 64.9° 56.7° - - -
6/27 5:00am 31 1 G 2 58° 74% - - 49° 64.9° 57° - - -
6/27 4:50am 35 1 G 2 58° 72% - - 49° 64.9° 57° - - -
6/27 4:40am 24 0 G 2 58° 77% - - 50° 64.9° 57° - - -
6/27 4:30am 15 1 G 2 57° 80% - - 51° 64.9° 57° - - -
6/27 4:20am 17 1 G 3 58° 80% - - 52° 64.9° 57.1° - - -
6/27 4:10am 39 0 G 2 58° 81% - - 52° 64.9° 57.6° - - -
6/27 4:00am 22 1 G 3 58° 81% - - 52° 64.9° 57.6° - - -
6/27 3:50am 23 1 G 3 58° 80% - - 52° 64.9° 58° - - -
6/27 3:40am 25 0 G 1 59° 79% - - 52° 64.9° 58° - - -
6/27 3:30am 24 1 G 2 59° 79% - - 53° 64.9° 58° - - -
6/27 3:20am 26 1 G 2 59° 80% - - 53° 64.9° 58° - - -
6/27 3:10am 3 2 G 3 59° 87% - - 55° 64.9° 58° - - -
6/27 3:00am 20 1 G 2 58° 89% - - 55° 64.9° 58.1° - - -
6/27 2:50am 22 2 G 3 59° 85% - - 55° 64.9° 58.5° - - -
6/27 2:40am 31 0 G 3 60° 78% - - 53° 64.9° 59.7° - - -
6/27 2:30am 15 1 G 2 60° 77% - - 53° 64.9° 59.9° - - -
6/27 2:20am 4 1 G 2 60° 80% - - 54° 64.9° 60° - - -
6/27 2:10am 7 2 G 3 61° 80% - - 55° 64.9° 60.7° - - -
6/27 2:00am 24 1 G 2 62° 79% - - 55° 64.9° 61.1° - - -
6/27 1:50am 27 1 G 2 62° 77% - - 55° 64.9° 61.6° - - -
6/27 1:40am 19 1 G 2 63° 76% - - 55° 64.9° 61.6° - - -
6/27 1:30am 22 0 G 1 62° 82% - - 56° 64.9° 61.6° - - -
6/27 1:20am 12 0 G 1 62° 81% - - 56° 64.9° 61.8° - - -
6/27 1:10am 50 1 G 2 62° 81% - - 56° 64.9° 62.1° - - -
6/27 1:00am 68 1 G 2 63° 83% - - 57° 64.9° 62.4° - - -
6/27 12:50am 49 1 G 1 63° 83% - - 58° 64.9° 62.5° - - -
6/27 12:40am 55 1 G 2 63° 82% - - 57° 64.9° 62.8° - - -
6/27 12:30am 20 2 G 3 64° 79% - - 57° 64.9° 63.3° - - -
6/27 12:20am 1 2 G 4 65° 78% - - 57° 64.9° 63.5° - - -
6/27 12:10am 355 0 G 2 64° 82% - - 58° 64° 63.5° - - -
6/27 12:00am 18 0 G 2 64° 82% - - 58° 94.4° 59.2° - - -
6/26 11:50pm 8 2 G 2 65° 78% - - 58° 94.4° 59.2° - - -
6/26 11:40pm 325 1 G 2 66° 76% - - 58° 94.4° 59.2° - - -
6/26 11:30pm 318 0 G 1 65° 83% - - 59° 94.4° 59.2° - - -
6/26 11:20pm 11 1 G 3 65° 84% - - 60° 94.4° 59.2° - - -
6/26 11:10pm 2 1 G 2 66° 84% - - 60° 94.4° 59.2° - - -
6/26 11:00pm 359 0 G 2 66° 79% - - 60° 94.4° 59.2° - - -
6/26 10:50pm 327 0 G 1 67° 76% - - 59° 94.4° 59.2° - - -
6/26 10:40pm 315 0 G 1 68° 75% - - 60° 94.4° 59.2° - - -
6/26 10:30pm 221 0 G 1 68° 75% - - 60° 94.4° 59.2° - - -
6/26 10:20pm 240 1 G 2 68° 74% - - 60° 94.4° 59.2° - - -
6/26 10:10pm 220 1 G 3 68° 74% - - 59° 94.4° 59.2° - - -
6/26 10:00pm 228 2 G 4 69° 69% - - 58° 94.4° 59.2° - - -
6/26 9:50pm 225 4 G 5 70° 65% - - 58° 94.4° 59.2° - - -
6/26 9:40pm 207 3 G 5 70° 64% - - 58° 94.4° 59.2° - - -
6/26 9:30pm 151 1 G 2 71° 63% - - 57° 94.4° 59.2° - - -
6/26 9:20pm 233 4 G 5 72° 60% - - 57° 94.4° 59.2° - - -
6/26 9:10pm 240 4 G 5 73° 58% - - 57° 94.4° 59.2° - - -
6/26 9:00pm 242 5 G 6 74° 55% - - 57° 94.4° 59.2° - - -
6/26 8:50pm 232 5 G 7 75° 53% - - 56° 94.4° 59.2° - - -
6/26 8:40pm 232 6 G 7 76° 51% - - 56° 94.4° 59.2° - - -
6/26 8:30pm 228 6 G 8 77° 49% - - 56° 94.4° 59.2° - - -
6/26 8:20pm 237 5 G 7 77° 47% - - 56° 94.4° 59.2° - - -
6/26 8:10pm 243 5 G 6 78° 45% - - 55° 94.4° 59.2° - - -
6/26 8:00pm 236 6 G 6 79° 43% - - 55° 94.4° 59.2° - - -
6/26 7:50pm 237 5 G 6 80° 40% - - 54° 94.4° 59.2° - - -
6/26 7:40pm 245 4 G 6 82° 37% - - 53° 94.4° 59.2° - - -
6/26 7:30pm 241 4 G 5 84° 34% - - 52° 94.4° 59.2° - - -
6/26 7:20pm 223 4 G 5 85° 32% - - 52° 94.4° 59.2° - - -
6/26 7:10pm 211 4 G 5 86° 30% - - 51° 94.4° 59.2° - - -
6/26 7:00pm 201 3 G 5 86° 29% - - 50° 94.4° 59.2° - - -
6/26 6:50pm 193 3 G 6 86° 29% - - 50° 94.4° 59.2° - - -
6/26 6:40pm 172 3 G 5 86° 29% - - 50° 94.4° 59.2° - - -
6/26 6:30pm 183 3 G 5 87° 28% - - 50° 94.4° 59.2° - - -
6/26 6:20pm 189 4 G 6 87° 28% - - 50° 94.4° 59.2° - - -
6/26 6:10pm 179 4 G 7 88° 28% - - 50° 94.4° 59.2° - - -
6/26 6:00pm 198 5 G 9 88° 27% - - 50° 94.4° 59.2° - - -
6/26 5:50pm 182 5 G 8 88° 27% - - 50° 94.4° 59.2° - - -
6/26 5:40pm 166 4 G 8 89° 26% - - 50° 94.4° 59.2° - - -
6/26 5:30pm 182 4 G 8 91° 24% - - 49° 94.4° 59.2° - - -
6/26 5:20pm 178 4 G 9 91° 23% - - 49° 94.4° 59.2° - - -
6/26 5:10pm 185 4 G 11 91° 24% - - 49° 94.4° 59.2° - - -
6/26 5:00pm 180 4 G 9 92° 23% - - 49° 94.4° 59.2° - - -
6/26 4:50pm 172 4 G 8 92° 24% - - 49° 94.4° 59.2° - - -
6/26 4:40pm 185 5 G 9 92° 24% - - 50° 94.4° 59.2° - - -
6/26 4:30pm 179 6 G 11 92° 24% - - 50° 94.4° 59.2° - - -
6/26 4:20pm 173 6 G 10 92° 24% - - 50° 94.4° 59.2° - - -
6/26 4:10pm 184 5 G 11 92° 24% - - 50° 94.4° 59.2° - - -
6/26 4:00pm 176 6 G 10 93° 23% - - 50° 94.4° 59.2° - - -
6/26 3:50pm 200 7 G 13 93° 22% - - 49° 94.4° 59.2° - - -
6/26 3:40pm 207 6 G 12 94° 22% - - 49° 94.4° 59.2° - - -
6/26 3:30pm 187 7 G 11 92° 24% - - 50° 94.4° 59.2° - - -
6/26 3:20pm 195 7 G 11 93° 23% - - 50° 94.4° 59.2° - - -
6/26 3:10pm 203 6 G 11 94° 23% - - 50° 94.4° 59.2° - - -
6/26 3:00pm 209 6 G 12 94° 23% - - 51° 94.4° 59.2° - - -
6/26 2:50pm 212 7 G 12 93° 24% - - 51° 94.2° 59.2° - - -
6/26 2:40pm 205 7 G 13 93° 25% - - 52° 94.2° 59.2° - - -
6/26 2:30pm 212 5 G 11 93° 25% - - 52° 94.2° 59.2° - - -
6/26 2:20pm 207 6 G 12 92° 26% - - 53° 93° 59.2° - - -
6/26 2:10pm 194 6 G 11 91° 27% - - 53° 92.9° 59.2° - - -
6/26 2:00pm 186 6 G 11 91° 28% - - 54° 92.9° 59.2° - - -
6/26 1:50pm 190 4 G 10 91° 28% - - 54° 92.8° 59.2° - - -
6/26 1:40pm 182 5 G 11 91° 28% - - 53° 92.8° 59.2° - - -
6/26 1:30pm 198 6 G 11 91° 27% - - 52° 92.8° 59.2° - - -
6/26 1:20pm 206 7 G 12 91° 27% - - 52° 92.8° 59.2° - - -
6/26 1:10pm 202 7 G 12 91° 27% - - 53° 92.8° 59.2° - - -
6/26 1:00pm 193 6 G 13 91° 28% - - 53° 92.8° 59.2° - - -
6/26 12:50pm 207 7 G 13 91° 27% - - 53° 92.8° 59.2° - - -
6/26 12:40pm 196 7 G 13 90° 28% - - 53° 92.8° 59.2° - - -
6/26 12:30pm 181 6 G 14 90° 29% - - 53° 92.8° 59.2° - - -
6/26 12:20pm 168 6 G 12 90° 28% - - 53° 92.8° 59.2° - - -
6/26 12:10pm 171 5 G 10 89° 29% - - 53° 92.8° 59.2° - - -
6/26 12:00pm 165 7 G 13 89° 28% - - 52° 92.8° 59.2° - - -
6/26 11:50am 176 5 G 11 90° 27% - - 52° 92.8° 59.2° - - -
6/26 11:40am 172 5 G 12 91° 28% - - 53° 92.8° 59.2° - - -
6/26 11:30am 205 6 G 12 91° 28% - - 54° 92.8° 59.2° - - -
6/26 11:20am 193 5 G 11 92° 27% - - 53° 92.8° 59.2° - - -
6/26 11:10am 190 5 G 8 92° 28% - - 54° 92.8° 59.2° - - -
6/26 11:00am 206 6 G 9 91° 26% - - 52° 92.1° 59.2° - - -
6/26 10:50am 201 5 G 10 91° 23% - - 49° 92.1° 59.2° - - -
6/26 10:40am 206 5 G 10 91° 25% - - 50° 91.9° 59.2° - - -
6/26 10:30am 196 5 G 8 91° 28% - - 53° 91.9° 59.2° - - -
6/26 10:20am 203 5 G 9 90° 29% - - 53° 91.9° 59.2° - - -
6/26 10:10am 186 5 G 8 91° 26% - - 52° 91.9° 59.2° - - -
6/26 10:00am 198 4 G 7 91° 26% - - 52° 91.8° 59.2° - - -
6/26 9:50am 212 4 G 6 90° 28% - - 52° 90.9° 59.2° - - -
6/26 9:40am 231 3 G 6 89° 28% - - 52° 89.8° 59.2° - - -
6/26 9:30am 213 3 G 7 88° 29% - - 52° 88.7° 59.2° - - -
6/26 9:20am 192 3 G 6 87° 31% - - 53° 87.7° 59.2° - - -
6/26 9:10am 228 4 G 7 87° 33% - - 54° 87.6° 59.2° - - -
6/26 9:00am 218 4 G 6 86° 32% - - 53° 86.7° 59.2° - - -
6/26 8:50am 250 2 G 5 85° 31% - - 51° 86.4° 59.2° - - -
6/26 8:40am 62 2 G 3 85° 34% - - 54° 86.4° 59.2° - - -
6/26 8:30am 39 2 G 3 84° 37% - - 55° 84.8° 59.2° - - -
6/26 8:20am 54 1 G 3 82° 41% - - 56° 83.2° 59.2° - - -
6/26 8:10am 33 2 G 3 80° 46% - - 57° 80.3° 59.2° - - -
6/26 8:00am 53 2 G 4 79° 46% - - 56° 79.4° 59.2° - - -
6/26 7:50am 115 1 G 2 76° 50% - - 56° 78.2° 59.2° - - -
6/26 7:40am 90 1 G 2 73° 55% - - 56° 74.3° 59.2° - - -
6/26 7:30am 69 1 G 2 70° 61% - - 56° 71.9° 59.2° - - -
6/26 7:20am 43 1 G 2 68° 67% - - 57° 69.1° 59.2° - - -
6/26 7:10am 27 2 G 3 68° 73% - - 59° 68.1° 59.2° - - -
6/26 7:00am 35 0 G 2 66° 81% - - 60° 67.3° 59.2° - - -
6/26 6:50am 32 0 G 1 64° 97% - - 63° 66.6° 59.2° - - -
6/26 6:40am 14 1 G 3 63° 100% - - 63° 66.6° 59.2° - - -
6/26 6:30am 13 2 G 3 63° 100% - - 63° 66.6° 59.2° - - -
6/26 6:20am 25 2 G 3 62° 100% - - 62° 66.6° 59.2° - - -
6/26 6:10am 45 1 G 2 62° 100% - - 62° 66.6° 59.2° - - -
6/26 6:00am 49 1 G 1 63° 100% - - 63° 66.6° 59.2° - - -